sensor_id;sensor_type;location;lat;lon;timestamp;pressure;altitude;pressure_sealevel;temperature;humidity
37132;BME280;23035;50.032;21.978;2022-10-16T00:03:21;66673.50;;;14.21;100.00
37132;BME280;23035;50.032;21.978;2022-10-16T00:08:31;66674.88;;;14.32;100.00
37132;BME280;23035;50.032;21.978;2022-10-16T00:13:38;66596.81;;;13.56;100.00
37132;BME280;23035;50.032;21.978;2022-10-16T00:18:42;66648.34;;;14.02;100.00
37132;BME280;23035;50.032;21.978;2022-10-16T00:23:50;66631.59;;;13.84;100.00
37132;BME280;23035;50.032;21.978;2022-10-16T00:28:56;66704.25;;;14.52;100.00
37132;BME280;23035;50.032;21.978;2022-10-16T00:34:00;66686.56;;;14.38;100.00
37132;BME280;23035;50.032;21.978;2022-10-16T00:39:04;66618.88;;;13.76;100.00
37132;BME280;23035;50.032;21.978;2022-10-16T00:44:45;66636.00;;;13.90;100.00
37132;BME280;23035;50.032;21.978;2022-10-16T00:49:51;66640.91;;;13.97;100.00
37132;BME280;23035;50.032;21.978;2022-10-16T00:54:57;66605.88;;;13.62;100.00
37132;BME280;23035;50.032;21.978;2022-10-16T01:00:06;66672.13;;;14.27;100.00
37132;BME280;23035;50.032;21.978;2022-10-16T01:05:11;66697.25;;;14.46;100.00
37132;BME280;23035;50.032;21.978;2022-10-16T01:10:22;66683.31;;;14.35;100.00
37132;BME280;23035;50.032;21.978;2022-10-16T01:15:34;66585.00;;;13.44;100.00
37132;BME280;23035;50.032;21.978;2022-10-16T01:20:44;66584.22;;;13.36;100.00
37132;BME280;23035;50.032;21.978;2022-10-16T01:26:13;66610.81;;;13.69;100.00
37132;BME280;23035;50.032;21.978;2022-10-16T01:31:25;66667.19;;;14.20;100.00
37132;BME280;23035;50.032;21.978;2022-10-16T01:36:36;66656.56;;;14.15;100.00
37132;BME280;23035;50.032;21.978;2022-10-16T01:41:44;66654.28;;;14.07;100.00
37132;BME280;23035;50.032;21.978;2022-10-16T01:46:55;66611.94;;;13.72;100.00
37132;BME280;23035;50.032;21.978;2022-10-16T01:52:04;66603.81;;;13.62;100.00
37132;BME280;23035;50.032;21.978;2022-10-16T01:57:10;66649.97;;;14.03;100.00
37132;BME280;23035;50.032;21.978;2022-10-16T02:02:19;66606.50;;;13.65;100.00
37132;BME280;23035;50.032;21.978;2022-10-16T02:07:25;66666.72;;;14.22;100.00
37132;BME280;23035;50.032;21.978;2022-10-16T02:12:31;66683.31;;;14.35;100.00
37132;BME280;23035;50.032;21.978;2022-10-16T02:17:39;66715.53;;;14.63;100.00
37132;BME280;23035;50.032;21.978;2022-10-16T02:22:47;66659.13;;;14.12;100.00
37132;BME280;23035;50.032;21.978;2022-10-16T02:27:55;66696.16;;;14.45;100.00
37132;BME280;23035;50.032;21.978;2022-10-16T02:33:04;66662.25;;;14.13;100.00
37132;BME280;23035;50.032;21.978;2022-10-16T02:38:11;66580.09;;;13.37;100.00
37132;BME280;23035;50.032;21.978;2022-10-16T02:43:16;66585.00;;;13.44;100.00
37132;BME280;23035;50.032;21.978;2022-10-16T02:48:22;66644.75;;;14.03;100.00
37132;BME280;23035;50.032;21.978;2022-10-16T02:53:26;66699.09;;;14.55;100.00
37132;BME280;23035;50.032;21.978;2022-10-16T02:58:30;66711.91;;;14.64;100.00
37132;BME280;23035;50.032;21.978;2022-10-16T03:03:36;66703.88;;;14.57;100.00
37132;BME280;23035;50.032;21.978;2022-10-16T03:08:40;66731.16;;;14.78;100.00
37132;BME280;23035;50.032;21.978;2022-10-16T03:13:44;66777.66;;;15.29;100.00
37132;BME280;23035;50.032;21.978;2022-10-16T03:18:49;66700.19;;;14.56;100.00
37132;BME280;23035;50.032;21.978;2022-10-16T03:23:52;66756.13;;;15.09;100.00
37132;BME280;23035;50.032;21.978;2022-10-16T03:28:56;66807.81;;;15.58;100.00
37132;BME280;23035;50.032;21.978;2022-10-16T03:34:02;66745.28;;;14.96;100.00
37132;BME280;23035;50.032;21.978;2022-10-16T03:39:05;66731.22;;;14.80;100.00
37132;BME280;23035;50.032;21.978;2022-10-16T03:44:09;66699.56;;;14.53;100.00
37132;BME280;23035;50.032;21.978;2022-10-16T03:49:15;66798.34;;;15.39;100.00
37132;BME280;23035;50.032;21.978;2022-10-16T03:54:21;66751.75;;;15.02;100.00
37132;BME280;23035;50.032;21.978;2022-10-16T03:59:25;66822.88;;;15.72;100.00
37132;BME280;23035;50.032;21.978;2022-10-16T04:04:30;66817.44;;;15.64;100.00
37132;BME280;23035;50.032;21.978;2022-10-16T04:09:35;66744.66;;;14.93;100.00
37132;BME280;23035;50.032;21.978;2022-10-16T04:14:39;66717.78;;;14.68;100.00
37132;BME280;23035;50.032;21.978;2022-10-16T04:19:44;66704.41;;;14.57;100.00
37132;BME280;23035;50.032;21.978;2022-10-16T04:24:47;66677.00;;;14.34;100.00
37132;BME280;23035;50.032;21.978;2022-10-16T04:29:51;66747.44;;;14.98;100.00
37132;BME280;23035;50.032;21.978;2022-10-16T04:34:56;66815.75;;;15.60;100.00
37132;BME280;23035;50.032;21.978;2022-10-16T04:40:00;66809.41;;;15.59;100.00
37132;BME280;23035;50.032;21.978;2022-10-16T04:45:05;66648.34;;;14.02;100.00
37132;BME280;23035;50.032;21.978;2022-10-16T04:50:16;66684.47;;;14.39;100.00
37132;BME280;23035;50.032;21.978;2022-10-16T04:55:36;66690.84;;;14.42;100.00
37132;BME280;23035;50.032;21.978;2022-10-16T05:00:40;66744.22;;;14.95;100.00
37132;BME280;23035;50.032;21.978;2022-10-16T05:05:45;66757.22;;;15.10;100.00
37132;BME280;23035;50.032;21.978;2022-10-16T05:10:49;66750.53;;;14.96;100.00
37132;BME280;23035;50.032;21.978;2022-10-16T05:15:53;66808.28;;;15.56;100.00
37132;BME280;23035;50.032;21.978;2022-10-16T05:20:58;66798.03;;;15.46;100.00
37132;BME280;23035;50.032;21.978;2022-10-16T05:26:02;66877.06;;;16.16;100.00
37132;BME280;23035;50.032;21.978;2022-10-16T05:31:06;66806.66;;;15.54;100.00
37132;BME280;23035;50.032;21.978;2022-10-16T05:36:11;66862.13;;;16.06;100.00
37132;BME280;23035;50.032;21.978;2022-10-16T05:41:15;66808.28;;;15.56;100.00
37132;BME280;23035;50.032;21.978;2022-10-16T05:46:23;66838.44;;;15.84;100.00
37132;BME280;23035;50.032;21.978;2022-10-16T05:51:29;66842.81;;;15.91;98.95
37132;BME280;23035;50.032;21.978;2022-10-16T05:56:33;66876.81;;;16.25;99.89
37132;BME280;23035;50.032;21.978;2022-10-16T06:01:36;66896.06;;;16.39;97.42
37132;BME280;23035;50.032;21.978;2022-10-16T06:06:42;66807.09;;;15.52;100.00
37132;BME280;23035;50.032;21.978;2022-10-16T06:11:45;66858.97;;;16.06;98.58
37132;BME280;23035;50.032;21.978;2022-10-16T06:16:49;66823.75;;;15.65;100.00
37132;BME280;23035;50.032;21.978;2022-10-16T06:21:54;66903.59;;;16.46;95.45
37132;BME280;23035;50.032;21.978;2022-10-16T06:27:00;66919.16;;;16.58;94.86
37132;BME280;23035;50.032;21.978;2022-10-16T06:32:04;66933.81;;;16.74;93.46
37132;BME280;23035;50.032;21.978;2022-10-16T06:37:09;66966.13;;;17.05;90.88
37132;BME280;23035;50.032;21.978;2022-10-16T06:42:13;66951.03;;;16.90;90.39
37132;BME280;23035;50.032;21.978;2022-10-16T06:47:17;67010.25;;;17.44;86.01
37132;BME280;23035;50.032;21.978;2022-10-16T06:52:23;67049.72;;;17.84;84.66
37132;BME280;23035;50.032;21.978;2022-10-16T06:57:27;66961.34;;;17.03;88.70
37132;BME280;23035;50.032;21.978;2022-10-16T07:02:32;67066.44;;;17.99;84.10
37132;BME280;23035;50.032;21.978;2022-10-16T07:07:37;66987.00;;;17.19;88.58
37132;BME280;23035;50.032;21.978;2022-10-16T07:12:41;67038.94;;;17.73;84.77
37132;BME280;23035;50.032;21.978;2022-10-16T07:17:47;66993.06;;;17.30;86.05
37132;BME280;23035;50.032;21.978;2022-10-16T07:22:52;67072.84;;;18.03;83.14
37132;BME280;23035;50.032;21.978;2022-10-16T07:27:56;67029.13;;;17.62;84.99
37132;BME280;23035;50.032;21.978;2022-10-16T07:33:03;67151.69;;;18.80;78.96
37132;BME280;23035;50.032;21.978;2022-10-16T07:38:12;67096.09;;;18.27;79.47
37132;BME280;23035;50.032;21.978;2022-10-16T07:43:15;67086.47;;;18.21;80.73
37132;BME280;23035;50.032;21.978;2022-10-16T07:48:19;67002.78;;;17.39;84.44
37132;BME280;23035;50.032;21.978;2022-10-16T07:53:26;67049.19;;;17.83;83.35
37132;BME280;23035;50.032;21.978;2022-10-16T07:58:31;67054.56;;;17.88;83.53
37132;BME280;23035;50.032;21.978;2022-10-16T08:03:35;67171.72;;;19.01;77.05
37132;BME280;23035;50.032;21.978;2022-10-16T08:08:41;67091.78;;;18.23;81.29
37132;BME280;23035;50.032;21.978;2022-10-16T08:13:53;67170.03;;;18.97;77.50
37132;BME280;23035;50.032;21.978;2022-10-16T08:18:59;67210.59;;;19.38;76.12
37132;BME280;23035;50.032;21.978;2022-10-16T08:24:05;67280.66;;;19.99;71.77
37132;BME280;23035;50.032;21.978;2022-10-16T08:29:09;67243.00;;;19.68;73.04
37132;BME280;23035;50.032;21.978;2022-10-16T08:34:13;67295.19;;;20.10;69.58
37132;BME280;23035;50.032;21.978;2022-10-16T08:39:24;67326.78;;;20.50;68.56
37132;BME280;23035;50.032;21.978;2022-10-16T08:44:35;67322.25;;;20.38;67.81
37132;BME280;23035;50.032;21.978;2022-10-16T08:49:43;67363.94;;;20.80;66.88
37132;BME280;23035;50.032;21.978;2022-10-16T08:54:58;67281.81;;;20.02;69.92
37132;BME280;23035;50.032;21.978;2022-10-16T09:00:05;67326.66;;;20.45;66.44
37132;BME280;23035;50.032;21.978;2022-10-16T09:05:21;67386.09;;;21.01;65.44
37132;BME280;23035;50.032;21.978;2022-10-16T09:10:32;67429.50;;;21.46;62.07
37132;BME280;23035;50.032;21.978;2022-10-16T09:15:39;67342.94;;;20.62;65.15
37132;BME280;23035;50.032;21.978;2022-10-16T09:20:49;67260.75;;;19.83;68.32
37132;BME280;23035;50.032;21.978;2022-10-16T09:26:05;67227.25;;;19.51;69.60
37132;BME280;23035;50.032;21.978;2022-10-16T09:31:24;67217.53;;;19.42;68.99
37132;BME280;23035;50.032;21.978;2022-10-16T09:36:28;67166.69;;;18.89;70.47
37132;BME280;23035;50.032;21.978;2022-10-16T09:41:34;67205.53;;;19.26;71.80
37132;BME280;23035;50.032;21.978;2022-10-16T09:46:40;67322.31;;;20.41;65.59
37132;BME280;23035;50.032;21.978;2022-10-16T09:51:44;67268.91;;;19.93;66.61
37132;BME280;23035;50.032;21.978;2022-10-16T09:56:49;67175.44;;;19.02;70.89
37132;BME280;23035;50.032;21.978;2022-10-16T10:01:54;67257.03;;;19.82;68.16
37132;BME280;23035;50.032;21.978;2022-10-16T10:06:58;67331.00;;;20.49;65.75
37132;BME280;23035;50.032;21.978;2022-10-16T10:12:06;67321.72;;;20.38;66.17
37132;BME280;23035;50.032;21.978;2022-10-16T10:17:26;67277.50;;;19.98;66.54
37132;BME280;23035;50.032;21.978;2022-10-16T10:22:31;67252.09;;;19.74;67.95
37132;BME280;23035;50.032;21.978;2022-10-16T10:27:38;67342.94;;;20.62;66.15
37132;BME280;23035;50.032;21.978;2022-10-16T10:32:47;67295.31;;;20.15;65.08
37132;BME280;23035;50.032;21.978;2022-10-16T10:38:01;67267.25;;;19.89;66.06
37132;BME280;23035;50.032;21.978;2022-10-16T10:43:13;67380.63;;;20.93;64.44
37132;BME280;23035;50.032;21.978;2022-10-16T10:48:38;67407.31;;;21.26;63.35
37132;BME280;23035;50.032;21.978;2022-10-16T10:54:02;67445.06;;;21.56;61.07
37132;BME280;23035;50.032;21.978;2022-10-16T11:04:56;67539.22;;;22.47;58.62
37132;BME280;23035;50.032;21.978;2022-10-16T11:10:03;67505.16;;;22.15;59.41
37132;BME280;23035;50.032;21.978;2022-10-16T11:15:18;67396.91;;;21.11;60.34
37132;BME280;23035;50.032;21.978;2022-10-16T11:20:33;67406.69;;;21.23;59.51
37132;BME280;23035;50.032;21.978;2022-10-16T11:26:10;67448.78;;;21.57;58.99
37132;BME280;23035;50.032;21.978;2022-10-16T11:31:32;67555.47;;;22.63;56.83
37132;BME280;23035;50.032;21.978;2022-10-16T11:36:53;67346.66;;;20.63;62.32
37132;BME280;23035;50.032;21.978;2022-10-16T11:42:03;67602.00;;;23.06;54.75
37132;BME280;23035;50.032;21.978;2022-10-16T11:47:30;67634.38;;;23.32;53.20
37132;BME280;23035;50.032;21.978;2022-10-16T11:58:54;67733.53;;;24.27;50.31
37132;BME280;23035;50.032;21.978;2022-10-16T12:04:29;67582.03;;;22.90;52.27
37132;BME280;23035;50.032;21.978;2022-10-16T12:10:23;67622.56;;;23.26;53.34
37132;BME280;23035;50.032;21.978;2022-10-16T12:15:47;67699.47;;;23.98;50.75
37132;BME280;23035;50.032;21.978;2022-10-16T12:21:15;67832.28;;;25.25;47.50
37132;BME280;23035;50.032;21.978;2022-10-16T12:27:20;67707.38;;;23.95;49.63
37132;BME280;23035;50.032;21.978;2022-10-16T12:33:01;67854.94;;;25.41;46.89
37132;BME280;23035;50.032;21.978;2022-10-16T12:39:19;67767.16;;;24.59;47.36
37132;BME280;23035;50.032;21.978;2022-10-16T12:44:54;67858.69;;;25.42;46.14
37132;BME280;23035;50.032;21.978;2022-10-16T12:49:59;67917.38;;;26.05;44.10
37132;BME280;23035;50.032;21.978;2022-10-16T12:55:13;67767.25;;;24.64;47.52
37132;BME280;23035;50.032;21.978;2022-10-16T13:00:21;67831.63;;;25.20;45.45
37132;BME280;23035;50.032;21.978;2022-10-16T13:05:34;67857.59;;;25.41;45.66
37132;BME280;23035;50.032;21.978;2022-10-16T13:10:47;67869.03;;;25.55;44.64
37132;BME280;23035;50.032;21.978;2022-10-16T13:16:00;67871.22;;;25.57;45.14
37132;BME280;23035;50.032;21.978;2022-10-16T13:21:17;67856.56;;;25.43;44.79
37132;BME280;23035;50.032;21.978;2022-10-16T13:26:25;67788.28;;;24.79;45.88
37132;BME280;23035;50.032;21.978;2022-10-16T13:31:33;67812.72;;;25.04;45.68
37132;BME280;23035;50.032;21.978;2022-10-16T13:36:44;67856.53;;;25.40;44.89
37132;BME280;23035;50.032;21.978;2022-10-16T13:41:57;67821.84;;;25.08;45.09
37132;BME280;23035;50.032;21.978;2022-10-16T13:47:15;67815.31;;;25.02;45.23
37132;BME280;23035;50.032;21.978;2022-10-16T13:52:20;67779.06;;;24.70;46.21
37132;BME280;23035;50.032;21.978;2022-10-16T13:57:24;67768.81;;;24.63;46.48
37132;BME280;23035;50.032;21.978;2022-10-16T14:02:30;67722.28;;;24.22;46.81
37132;BME280;23035;50.032;21.978;2022-10-16T14:07:38;67735.09;;;24.26;46.57
37132;BME280;23035;50.032;21.978;2022-10-16T14:12:44;67676.00;;;23.68;47.76
37132;BME280;23035;50.032;21.978;2022-10-16T14:17:50;67682.16;;;23.82;48.54
37132;BME280;23035;50.032;21.978;2022-10-16T14:22:59;67711.81;;;24.04;47.71
37132;BME280;23035;50.032;21.978;2022-10-16T14:28:04;67725.97;;;24.20;47.43
37132;BME280;23035;50.032;21.978;2022-10-16T14:33:19;67709.81;;;24.10;47.24
37132;BME280;23035;50.032;21.978;2022-10-16T14:38:25;67583.69;;;22.92;50.62
37132;BME280;23035;50.032;21.978;2022-10-16T14:43:31;67436.34;;;21.45;55.06
37132;BME280;23035;50.032;21.978;2022-10-16T14:48:36;67438.56;;;21.50;55.67
37132;BME280;23035;50.032;21.978;2022-10-16T14:53:45;67514.75;;;22.19;53.53
37132;BME280;23035;50.032;21.978;2022-10-16T14:58:49;67578.06;;;22.79;52.39
37132;BME280;23035;50.032;21.978;2022-10-16T15:03:54;67532.13;;;22.38;53.32
37132;BME280;23035;50.032;21.978;2022-10-16T15:08:59;67472.06;;;21.82;54.40
37132;BME280;23035;50.032;21.978;2022-10-16T15:14:03;67373.13;;;20.88;57.48
37132;BME280;23035;50.032;21.978;2022-10-16T15:19:07;67318.47;;;20.34;60.26
37132;BME280;23035;50.032;21.978;2022-10-16T15:24:13;67314.16;;;20.30;61.35
37132;BME280;23035;50.032;21.978;2022-10-16T15:29:22;67260.94;;;19.90;63.59
37132;BME280;23035;50.032;21.978;2022-10-16T15:34:26;67241.31;;;19.64;65.01
37132;BME280;23035;50.032;21.978;2022-10-16T15:39:32;67205.13;;;19.30;67.01
37132;BME280;23035;50.032;21.978;2022-10-16T15:44:42;67205.66;;;19.31;66.82
37132;BME280;23035;50.032;21.978;2022-10-16T15:49:46;67177.00;;;19.01;67.94
37132;BME280;23035;50.032;21.978;2022-10-16T15:54:54;67116.13;;;18.49;69.90
37132;BME280;23035;50.032;21.978;2022-10-16T15:59:57;67091.38;;;18.28;70.72
37132;BME280;23035;50.032;21.978;2022-10-16T16:05:13;67152.22;;;18.80;70.50
37132;BME280;23035;50.032;21.978;2022-10-16T16:10:18;67157.56;;;18.83;70.91
37132;BME280;23035;50.032;21.978;2022-10-16T16:15:25;67171.13;;;18.98;70.35
37132;BME280;23035;50.032;21.978;2022-10-16T16:20:29;67147.38;;;18.76;70.82
37132;BME280;23035;50.032;21.978;2022-10-16T16:25:34;67177.00;;;19.01;70.58
37132;BME280;23035;50.032;21.978;2022-10-16T16:30:38;67166.19;;;18.91;69.62
37132;BME280;23035;50.032;21.978;2022-10-16T16:35:42;67127.47;;;18.59;70.88
37132;BME280;23035;50.032;21.978;2022-10-16T16:40:48;67145.75;;;18.74;71.48
37132;BME280;23035;50.032;21.978;2022-10-16T16:45:59;67107.41;;;18.38;73.28
37132;BME280;23035;50.032;21.978;2022-10-16T16:51:05;67121.94;;;18.49;73.33
37132;BME280;23035;50.032;21.978;2022-10-16T16:56:10;67139.28;;;18.68;72.01
37132;BME280;23035;50.032;21.978;2022-10-16T17:01:15;67109.06;;;18.40;72.77
37132;BME280;23035;50.032;21.978;2022-10-16T17:06:23;67097.78;;;18.31;73.25
37132;BME280;23035;50.032;21.978;2022-10-16T17:11:29;67035.06;;;17.67;76.11
37132;BME280;23035;50.032;21.978;2022-10-16T17:16:34;66910.47;;;16.47;81.88
37132;BME280;23035;50.032;21.978;2022-10-16T17:21:38;66911.00;;;16.48;82.24
37132;BME280;23035;50.032;21.978;2022-10-16T17:26:43;66995.16;;;17.30;79.60
37132;BME280;23035;50.032;21.978;2022-10-16T17:31:50;66948.81;;;16.86;80.27
37132;BME280;23035;50.032;21.978;2022-10-16T17:36:54;66960.72;;;17.00;79.47
37132;BME280;23035;50.032;21.978;2022-10-16T17:47:18;66910.09;;;16.52;83.22
37132;BME280;23035;50.032;21.978;2022-10-16T17:52:22;66963.28;;;16.97;81.36
37132;BME280;23035;50.032;21.978;2022-10-16T17:57:26;66953.06;;;16.87;81.75
37132;BME280;23035;50.032;21.978;2022-10-16T18:02:33;66945.13;;;16.85;81.66
37132;BME280;23035;50.032;21.978;2022-10-16T18:07:37;66874.53;;;16.18;85.01
37132;BME280;23035;50.032;21.978;2022-10-16T18:12:47;66843.28;;;15.89;87.45
37132;BME280;23035;50.032;21.978;2022-10-16T18:17:52;66864.22;;;16.06;87.87
37132;BME280;23035;50.032;21.978;2022-10-16T18:22:56;66887.97;;;16.31;86.32
37132;BME280;23035;50.032;21.978;2022-10-16T18:28:02;66912.16;;;16.51;84.03
37132;BME280;23035;50.032;21.978;2022-10-16T18:33:09;66968.28;;;17.07;80.40
37132;BME280;23035;50.032;21.978;2022-10-16T18:38:13;66976.84;;;17.12;80.22
37132;BME280;23035;50.032;21.978;2022-10-16T18:43:17;67002.78;;;17.39;79.34
37132;BME280;23035;50.032;21.978;2022-10-16T18:48:23;66964.59;;;17.06;79.66
37132;BME280;23035;50.032;21.978;2022-10-16T18:53:27;66965.00;;;17.01;80.27
37132;BME280;23035;50.032;21.978;2022-10-16T18:58:32;66959.53;;;16.94;79.72
37132;BME280;23035;50.032;21.978;2022-10-16T19:03:39;66961.97;;;17.06;79.49
37132;BME280;23035;50.032;21.978;2022-10-16T19:08:43;66939.66;;;16.77;80.50
37132;BME280;23035;50.032;21.978;2022-10-16T19:13:47;66940.72;;;16.78;82.57
37132;BME280;23035;50.032;21.978;2022-10-16T19:18:54;66923.94;;;16.60;82.22
37132;BME280;23035;50.032;21.978;2022-10-16T19:23:59;66945.06;;;16.82;81.57
37132;BME280;23035;50.032;21.978;2022-10-16T19:29:04;66877.75;;;16.21;84.41
37132;BME280;23035;50.032;21.978;2022-10-16T19:34:10;66902.53;;;16.45;83.29
37132;BME280;23035;50.032;21.978;2022-10-16T19:39:14;66894.84;;;16.32;85.13
37132;BME280;23035;50.032;21.978;2022-10-16T19:44:19;66928.25;;;16.64;81.38
37132;BME280;23035;50.032;21.978;2022-10-16T19:49:24;66967.06;;;17.01;81.33
37132;BME280;23035;50.032;21.978;2022-10-16T19:54:28;66948.59;;;16.78;81.95
37132;BME280;23035;50.032;21.978;2022-10-16T19:59:31;66954.19;;;16.91;80.84
37132;BME280;23035;50.032;21.978;2022-10-16T20:04:37;66886.28;;;16.27;83.09
37132;BME280;23035;50.032;21.978;2022-10-16T20:09:41;66882.59;;;16.26;83.35
37132;BME280;23035;50.032;21.978;2022-10-16T20:14:45;66910.09;;;16.52;83.73
37132;BME280;23035;50.032;21.978;2022-10-16T20:19:50;66929.47;;;16.70;82.27
37132;BME280;23035;50.032;21.978;2022-10-16T20:24:54;66932.09;;;16.70;82.21
37132;BME280;23035;50.032;21.978;2022-10-16T20:29:58;66963.84;;;16.98;80.77
37132;BME280;23035;50.032;21.978;2022-10-16T20:35:04;66904.69;;;16.47;83.63
37132;BME280;23035;50.032;21.978;2022-10-16T20:40:09;66918.63;;;16.57;82.53
37132;BME280;23035;50.032;21.978;2022-10-16T20:45:14;66871.91;;;16.18;85.20
37132;BME280;23035;50.032;21.978;2022-10-16T20:50:19;66862.13;;;16.06;86.90
37132;BME280;23035;50.032;21.978;2022-10-16T20:55:22;66857.28;;;16.02;85.85
37132;BME280;23035;50.032;21.978;2022-10-16T21:00:26;66832.50;;;15.78;89.03
37132;BME280;23035;50.032;21.978;2022-10-16T21:05:33;66905.81;;;16.50;84.27
37132;BME280;23035;50.032;21.978;2022-10-16T21:10:42;66876.81;;;16.25;86.05
37132;BME280;23035;50.032;21.978;2022-10-16T21:15:45;66929.47;;;16.70;83.27
37132;BME280;23035;50.032;21.978;2022-10-16T21:20:52;66889.63;;;16.32;85.86
37132;BME280;23035;50.032;21.978;2022-10-16T21:25:56;66878.75;;;16.20;85.43
37132;BME280;23035;50.032;21.978;2022-10-16T21:31:09;66867.50;;;16.12;86.29
37132;BME280;23035;50.032;21.978;2022-10-16T21:36:15;66836.13;;;15.77;88.04
37132;BME280;23035;50.032;21.978;2022-10-16T21:41:20;66794.72;;;15.40;91.26
37132;BME280;23035;50.032;21.978;2022-10-16T21:46:24;66856.59;;;15.96;88.31
37132;BME280;23035;50.032;21.978;2022-10-16T21:51:34;66826.50;;;15.70;89.20
37132;BME280;23035;50.032;21.978;2022-10-16T21:56:38;66747.44;;;14.98;95.03
37132;BME280;23035;50.032;21.978;2022-10-16T22:01:42;66817.97;;;15.65;91.75
37132;BME280;23035;50.032;21.978;2022-10-16T22:06:47;66767.91;;;15.17;94.11
37132;BME280;23035;50.032;21.978;2022-10-16T22:11:51;66750.66;;;15.01;95.53
37132;BME280;23035;50.032;21.978;2022-10-16T22:16:55;66759.88;;;15.12;94.24
37132;BME280;23035;50.032;21.978;2022-10-16T22:22:00;66820.13;;;15.67;91.11
37132;BME280;23035;50.032;21.978;2022-10-16T22:27:04;66809.88;;;15.57;92.29
37132;BME280;23035;50.032;21.978;2022-10-16T22:32:07;66836.38;;;15.85;88.56
37132;BME280;23035;50.032;21.978;2022-10-16T22:37:12;66781.28;;;15.28;93.13
37132;BME280;23035;50.032;21.978;2022-10-16T22:42:16;66805.56;;;15.53;90.66
37132;BME280;23035;50.032;21.978;2022-10-16T22:47:20;66832.44;;;15.76;91.63
37132;BME280;23035;50.032;21.978;2022-10-16T22:52:25;66828.66;;;15.72;90.65
37132;BME280;23035;50.032;21.978;2022-10-16T22:57:29;66757.75;;;15.10;95.64
37132;BME280;23035;50.032;21.978;2022-10-16T23:02:33;66779.19;;;15.28;94.80
37132;BME280;23035;50.032;21.978;2022-10-16T23:07:39;66800.56;;;15.43;92.99
37132;BME280;23035;50.032;21.978;2022-10-16T23:12:42;66834.06;;;15.77;90.86
37132;BME280;23035;50.032;21.978;2022-10-16T23:17:47;66747.91;;;14.96;95.85
37132;BME280;23035;50.032;21.978;2022-10-16T23:22:52;66710.84;;;14.63;98.61
37132;BME280;23035;50.032;21.978;2022-10-16T23:27:56;66648.91;;;14.02;100.00
37132;BME280;23035;50.032;21.978;2022-10-16T23:33:00;66730.69;;;14.80;99.97
37132;BME280;23035;50.032;21.978;2022-10-16T23:38:05;66786.13;;;15.32;96.02
37132;BME280;23035;50.032;21.978;2022-10-16T23:43:09;66782.28;;;15.26;94.75
37132;BME280;23035;50.032;21.978;2022-10-16T23:48:12;66783.34;;;15.27;95.59
37132;BME280;23035;50.032;21.978;2022-10-16T23:53:18;66768.97;;;15.18;95.29
37132;BME280;23035;50.032;21.978;2022-10-16T23:58:22;66700.09;;;14.53;100.00
